Time;durP1;ratioP1;P1;durP2;ratioP2;P2;SDS_P1;SDS_P2;PMS_P1;PMS_P2;Temp;Humidity;BMP_temperature;BMP_pressure;BME280_temperature;BME280_humidity;BME280_pressure;Samples;Min_cycle;Max_cycle;Signal;HPM_P1;HPM_P2
2021/01/17 00:00:32;;;;;;;29.70;12.60;;;;;;;-3.27;88.52;99199.31;5104811;28;20050;-81
2021/01/17 00:03:00;;;;;;;22.73;11.23;;;;;;;-3.08;88.26;99230.94;5111490;28;20043;-81
2021/01/17 00:05:28;;;;;;;24.50;11.67;;;;;;;-3.28;88.42;99212.72;5079745;28;20055;-81
2021/01/17 00:07:55;;;;;;;27.47;12.13;;;;;;;-3.20;88.98;99224.59;5092311;28;20127;-82
2021/01/17 00:10:23;;;;;;;24.43;12.30;;;;;;;-3.20;88.96;99195.34;5091947;28;20044;-81
2021/01/17 00:12:51;;;;;;;27.03;12.40;;;;;;;-3.30;89.03;99186.22;5091957;28;20047;-81
2021/01/17 00:15:18;;;;;;;25.70;11.17;;;;;;;-3.22;89.10;99202.56;5102605;28;20048;-81
2021/01/17 00:17:46;;;;;;;25.37;12.83;;;;;;;-3.12;88.93;99191.34;5092495;28;20056;-81
2021/01/17 00:20:15;;;;;;;24.90;12.90;;;;;;;-3.21;89.10;99179.47;5073845;28;20051;-81
2021/01/17 00:22:43;;;;;;;26.03;12.67;;;;;;;-3.19;88.70;99169.63;5101618;28;20040;-81
2021/01/17 00:25:15;;;;;;;26.27;11.97;;;;;;;-3.07;89.01;99190.09;5106978;28;20118;-81
2021/01/17 00:27:42;;;;;;;23.73;10.17;;;;;;;-3.27;88.68;99166.56;5099637;28;20044;-81
2021/01/17 00:30:10;;;;;;;19.43;10.33;;;;;;;-3.04;88.87;99191.69;5111639;28;20479;-81
2021/01/17 00:32:37;;;;;;;21.43;10.87;;;;;;;-3.12;88.53;99168.25;5102805;28;20523;-81
2021/01/17 00:35:06;;;;;;;25.10;10.80;;;;;;;-3.15;88.62;99155.16;5097377;28;20044;-81
2021/01/17 00:37:32;;;;;;;23.77;10.30;;;;;;;-3.25;89.30;99132.75;5091017;28;20120;-81
2021/01/17 00:39:58;;;;;;;22.00;10.50;;;;;;;-3.11;88.82;99154.00;5099532;28;20051;-81
2021/01/17 00:42:25;;;;;;;22.17;10.57;;;;;;;-3.23;89.04;99136.19;5099307;28;20044;-81
2021/01/17 00:44:51;;;;;;;21.17;9.37;;;;;;;-3.13;89.20;99160.38;5099397;28;20108;-81
2021/01/17 00:47:18;;;;;;;23.90;10.90;;;;;;;-3.23;89.43;99152.13;5091187;28;20464;-81
2021/01/17 00:49:45;;;;;;;21.30;10.33;;;;;;;-3.31;89.81;99144.66;5091123;28;20051;-81
2021/01/17 00:52:17;;;;;;;24.43;10.57;;;;;;;-3.23;88.98;99154.81;5091912;28;20317;-81
2021/01/17 00:54:43;;;;;;;23.83;11.47;;;;;;;-3.29;89.19;99147.22;5092738;28;20052;-81
2021/01/17 00:57:10;;;;;;;26.87;12.10;;;;;;;-3.24;89.34;99151.28;5105671;28;20052;-81
2021/01/17 00:59:36;;;;;;;25.77;11.90;;;;;;;-3.38;89.16;99122.06;5092182;28;20108;-81
2021/01/17 01:02:03;;;;;;;20.83;9.97;;;;;;;-3.35;88.61;99124.53;5102484;28;20059;-82
2021/01/17 01:04:30;;;;;;;19.80;11.10;;;;;;;-3.23;88.64;99133.53;5090559;28;20495;-81
2021/01/17 01:06:56;;;;;;;26.53;11.97;;;;;;;-3.34;88.72;99114.72;5096727;28;20056;-81
2021/01/17 01:09:24;;;;;;;25.43;12.27;;;;;;;-3.19;88.33;99143.03;5109196;28;20299;-81
2021/01/17 01:11:51;;;;;;;26.57;12.10;;;;;;;-3.26;88.14;99110.63;5094746;28;20070;-81
2021/01/17 01:14:17;;;;;;;22.93;11.43;;;;;;;-3.18;87.67;99106.63;5090498;28;20064;-81
2021/01/17 01:16:48;;;;;;;28.10;11.63;;;;;;;-3.27;87.81;99116.06;5096602;28;20058;-81
2021/01/17 01:19:14;;;;;;;25.40;11.30;;;;;;;-3.28;88.28;99124.97;5094995;28;20527;-81
2021/01/17 01:21:40;;;;;;;19.00;10.57;;;;;;;-3.33;88.02;99095.19;5091458;28;20389;-81
2021/01/17 01:24:09;;;;;;;25.00;11.53;;;;;;;-3.29;88.05;99102.03;5095152;28;20046;-81
2021/01/17 01:26:38;;;;;;;24.33;12.07;;;;;;;-3.38;88.58;99095.47;5094353;28;20048;-81
2021/01/17 01:29:05;;;;;;;30.25;13.20;;;;;;;-3.16;88.17;99116.22;5100722;28;20052;-81
2021/01/17 01:31:32;;;;;;;28.13;12.33;;;;;;;-3.09;87.70;99116.69;5111388;28;20055;-81
2021/01/17 01:33:59;;;;;;;23.57;12.10;;;;;;;-3.20;87.61;99083.66;5094645;28;20044;-81
2021/01/17 01:36:28;;;;;;;23.03;11.63;;;;;;;-3.11;87.45;99090.19;5090781;28;20059;-81
2021/01/17 01:38:57;;;;;;;27.80;11.33;;;;;;;-3.20;87.96;99081.00;5091893;28;20059;-81
2021/01/17 01:41:29;;;;;;;24.85;11.45;;;;;;;-3.28;88.14;99085.97;5096750;28;20484;-81
2021/01/17 01:43:57;;;;;;;25.33;11.23;;;;;;;-3.23;88.68;99088.31;5092344;28;20389;-81
2021/01/17 01:46:25;;;;;;;28.83;12.30;;;;;;;-3.34;88.24;99067.75;5105397;28;20040;-81
2021/01/17 01:48:56;;;;;;;26.23;11.47;;;;;;;-3.14;88.42;99100.19;5106459;28;20043;-81
2021/01/17 01:51:25;;;;;;;25.77;12.83;;;;;;;-3.33;88.41;99073.91;5109765;28;20050;-81
2021/01/17 01:53:52;;;;;;;28.00;12.80;;;;;;;-3.20;88.15;99090.78;5115258;28;20381;-81
2021/01/17 01:56:19;;;;;;;27.33;11.60;;;;;;;-3.23;88.64;99090.97;5112835;28;20063;-81
2021/01/17 01:58:46;;;;;;;20.70;11.40;;;;;;;-3.27;88.52;99086.81;5123028;28;20064;-81
2021/01/17 02:01:14;;;;;;;28.23;11.83;;;;;;;-3.16;87.51;99080.78;5109810;27;20044;-82
2021/01/17 02:03:45;;;;;;;22.90;12.00;;;;;;;-3.26;87.28;99041.50;5102207;27;20040;-81
2021/01/17 02:06:12;;;;;;;29.17;11.17;;;;;;;-3.25;88.08;99074.25;5094599;28;20036;-81
2021/01/17 02:09:04;;;;;;;25.57;12.90;;;;;;;-3.42;88.16;99048.78;5094116;28;20508;-81
2021/01/17 02:11:53;;;;;;;31.73;13.37;;;;;;;-3.26;88.00;99065.44;5093677;28;20516;-81
2021/01/17 02:14:32;;;;;;;26.17;12.13;;;;;;;-3.36;88.99;99050.19;5096736;28;20135;-81
2021/01/17 02:17:02;;;;;;;27.08;13.55;;;;;;;-3.41;88.69;99037.19;5110212;28;20051;-81
2021/01/17 02:19:32;;;;;;;28.73;13.73;;;;;;;-3.28;88.75;99062.03;5101665;28;20113;-82
2021/01/17 02:22:00;;;;;;;29.77;12.65;;;;;;;-3.35;88.83;99046.59;5108858;27;20089;-81
2021/01/17 02:24:50;;;;;;;24.20;12.07;;;;;;;-3.36;88.61;99047.53;5103055;28;20116;-82
2021/01/17 02:27:16;;;;;;;33.03;14.13;;;;;;;-3.52;89.26;99016.63;5103394;28;20052;-82
2021/01/17 02:29:46;;;;;;;22.83;11.83;;;;;;;-3.45;89.03;99020.56;5094356;28;20044;-81
2021/01/17 02:32:14;;;;;;;26.80;12.50;;;;;;;-3.39;89.14;99043.25;5094051;28;20310;-82
2021/01/17 02:34:43;;;;;;;32.53;14.00;;;;;;;-3.28;88.41;99046.09;5093637;28;20508;-81
2021/01/17 02:37:25;;;;;;;29.40;12.68;;;;;;;-3.28;88.57;99043.44;5109972;28;20062;-82
2021/01/17 02:40:00;;;;;;;26.73;12.10;;;;;;;-3.58;88.91;99001.09;5099850;28;20062;-82
2021/01/17 02:42:27;;;;;;;34.07;12.60;;;;;;;-3.35;88.59;99038.63;5110845;28;20051;-81
2021/01/17 02:44:54;;;;;;;32.43;13.30;;;;;;;-3.48;88.65;99011.97;5112088;27;20048;-81
2021/01/17 02:47:20;;;;;;;32.07;13.10;;;;;;;-3.40;88.92;99033.59;5108806;28;20393;-81
2021/01/17 02:49:51;;;;;;;27.37;13.33;;;;;;;-3.36;88.68;99036.91;5107799;28;20052;-81
2021/01/17 02:52:23;;;;;;;29.07;13.20;;;;;;;-3.36;88.59;99031.59;5093510;28;20047;-81
2021/01/17 02:54:50;;;;;;;28.93;11.93;;;;;;;-3.48;88.74;99017.28;5105034;27;20043;-81
2021/01/17 02:57:30;;;;;;;31.47;14.07;;;;;;;-3.48;88.87;99006.66;5100326;28;20404;-82
2021/01/17 03:00:00;;;;;;;28.33;12.07;;;;;;;-3.39;88.75;99029.97;5093538;28;20052;-81
2021/01/17 03:02:31;;;;;;;28.90;13.70;;;;;;;-3.52;88.78;99013.09;5096294;28;20503;-81
2021/01/17 03:05:00;;;;;;;31.53;13.53;;;;;;;-3.36;89.22;99055.50;5112570;28;20130;-82
2021/01/17 03:07:29;;;;;;;30.87;13.37;;;;;;;-3.54;89.20;99029.16;5112451;28;20055;-82
2021/01/17 03:09:58;;;;;;;32.40;15.38;;;;;;;-3.35;89.19;99063.38;5112779;28;20043;-82
2021/01/17 03:12:25;;;;;;;27.47;13.57;;;;;;;-3.39;88.83;99046.78;5104176;28;20050;-81
2021/01/17 03:14:55;;;;;;;35.67;15.20;;;;;;;-3.26;88.98;99052.16;5112859;28;20047;-82
2021/01/17 03:17:22;;;;;;;30.50;12.90;;;;;;;-3.51;88.75;99020.97;5102423;27;20124;-82
2021/01/17 03:19:52;;;;;;;24.70;13.23;;;;;;;-3.45;88.97;99028.56;5108081;28;20414;-82
2021/01/17 03:22:18;;;;;;;27.50;12.17;;;;;;;-3.34;88.65;99034.97;5103121;28;20040;-82
2021/01/17 03:24:45;;;;;;;26.00;13.37;;;;;;;-3.49;88.67;99016.44;5112754;28;20475;-82
2021/01/17 03:27:17;;;;;;;32.87;13.63;;;;;;;-3.34;88.43;99013.72;5110748;28;20043;-82
2021/01/17 03:29:44;;;;;;;22.57;13.20;;;;;;;-3.41;88.30;99013.28;5096640;28;20048;-81
2021/01/17 03:32:13;;;;;;;26.13;12.13;;;;;;;-3.47;88.46;99013.69;5109931;28;20048;-82
2021/01/17 03:34:42;;;;;;;31.67;13.63;;;;;;;-3.38;88.79;99031.69;5104008;28;20540;-82
2021/01/17 03:37:08;;;;;;;33.88;13.73;;;;;;;-3.44;88.72;99016.13;5095567;28;20553;-81
2021/01/17 03:39:35;;;;;;;27.77;13.83;;;;;;;-3.43;88.56;99010.72;5110737;28;20124;-82
2021/01/17 03:42:01;;;;;;;32.30;14.03;;;;;;;-3.43;88.20;99008.06;5111316;28;20039;-82
2021/01/17 03:44:28;;;;;;;29.60;12.73;;;;;;;-3.31;88.68;99022.34;5105589;28;20044;-82
2021/01/17 03:46:55;;;;;;;30.27;14.20;;;;;;;-3.28;88.40;99016.84;5101115;28;20051;-82
2021/01/17 03:49:22;;;;;;;34.30;15.83;;;;;;;-3.34;88.26;99000.41;5087573;28;20301;-82
2021/01/17 03:51:48;;;;;;;32.80;14.63;;;;;;;-3.36;87.73;99010.31;5098967;28;20059;-81
2021/01/17 03:54:14;;;;;;;33.07;13.73;;;;;;;-3.19;87.67;99018.03;5100038;28;20036;-81
2021/01/17 03:56:40;;;;;;;28.27;13.33;;;;;;;-3.32;87.97;98996.72;5103034;28;20074;-81
2021/01/17 03:59:07;;;;;;;35.57;15.13;;;;;;;-3.23;87.41;99008.56;5096908;27;20125;-81
2021/01/17 04:01:33;;;;;;;30.20;14.27;;;;;;;-3.19;87.15;99012.72;5098428;27;20048;-81
2021/01/17 04:04:00;;;;;;;28.87;13.60;;;;;;;-3.26;87.28;99022.06;5104179;27;20048;-81
2021/01/17 04:06:27;;;;;;;32.00;13.63;;;;;;;-3.29;87.32;99001.84;5108803;28;20051;-81
2021/01/17 04:08:53;;;;;;;30.10;12.80;;;;;;;-3.46;87.68;98994.09;5107147;27;20044;-81
2021/01/17 04:11:19;;;;;;;31.53;13.03;;;;;;;-3.41;88.13;99008.81;5115251;27;20053;-81
2021/01/17 04:13:46;;;;;;;28.23;13.77;;;;;;;-3.50;88.48;98997.94;5124401;27;20047;-81
2021/01/17 04:16:12;;;;;;;26.07;12.63;;;;;;;-3.47;88.50;99008.38;5102385;28;20047;-81
2021/01/17 04:18:38;;;;;;;30.13;13.10;;;;;;;-3.49;88.75;99000.50;5113453;27;20040;-81
2021/01/17 04:21:08;;;;;;;26.50;13.00;;;;;;;-3.57;88.75;98989.50;5113943;27;20048;-81
2021/01/17 04:23:34;;;;;;;24.25;13.25;;;;;;;-3.43;89.01;99012.53;5129998;27;20242;-81
2021/01/17 04:26:00;;;;;;;28.63;14.13;;;;;;;-3.36;88.38;99005.00;5131335;27;20043;-82
2021/01/17 04:28:27;;;;;;;26.37;13.13;;;;;;;-3.51;88.83;98989.09;5118142;27;20451;-81
2021/01/17 04:30:53;;;;;;;31.43;15.83;;;;;;;-3.28;88.53;99010.66;5112562;28;20039;-81
2021/01/17 04:33:20;;;;;;;30.47;14.20;;;;;;;-3.15;88.02;99018.69;5113011;28;20128;-81
2021/01/17 04:35:47;;;;;;;22.27;11.93;;;;;;;-3.22;87.72;99002.28;5117246;27;20043;-81
2021/01/17 04:38:14;;;;;;;27.30;13.47;;;;;;;-3.14;87.12;99023.06;5127444;27;20035;-81
2021/01/17 04:40:40;;;;;;;28.87;13.20;;;;;;;-3.22;87.42;99004.97;5112352;28;20085;-81
2021/01/17 04:43:08;;;;;;;31.57;13.63;;;;;;;-3.39;87.76;99004.25;5129813;27;20058;-82
2021/01/17 04:45:36;;;;;;;26.80;13.30;;;;;;;-3.34;88.09;99009.28;5131712;27;20534;-81
2021/01/17 04:48:03;;;;;;;33.50;13.97;;;;;;;-3.28;87.56;99018.63;5114095;28;20055;-81
2021/01/17 04:50:31;;;;;;;34.00;12.77;;;;;;;-3.41;87.94;99013.28;5129241;27;20055;-81
2021/01/17 04:53:00;;;;;;;30.33;13.90;;;;;;;-3.41;88.24;99014.13;5122581;27;20075;-81
2021/01/17 04:55:28;;;;;;;25.05;12.65;;;;;;;-3.34;88.69;99050.94;5106606;27;20107;-82
2021/01/17 04:58:11;;;;;;;34.40;14.03;;;;;;;-3.22;87.55;99039.53;5114511;28;20043;-81
2021/01/17 05:00:40;;;;;;;29.73;13.60;;;;;;;-3.40;87.85;99018.50;5104406;28;20127;-81
2021/01/17 05:03:28;;;;;;;30.42;13.43;;;;;;;-3.20;87.90;99040.25;5101996;28;20043;-81
2021/01/17 05:06:06;;;;;;;26.60;12.07;;;;;;;-3.24;87.62;99030.78;5124852;28;20057;-81
2021/01/17 05:08:34;;;;;;;26.20;12.47;;;;;;;-3.21;87.76;99027.91;5125462;28;20453;-81
2021/01/17 05:11:05;;;;;;;33.33;14.30;;;;;;;-3.03;87.15;99052.44;5112688;28;20039;-81
2021/01/17 05:13:39;;;;;;;34.80;13.43;;;;;;;-3.18;87.98;99045.47;5106009;28;20047;-81
2021/01/17 05:16:08;;;;;;;29.53;12.97;;;;;;;-3.26;88.41;99040.66;5105989;28;20519;-81
2021/01/17 05:18:36;;;;;;;28.90;14.13;;;;;;;-3.39;88.21;99030.84;5114173;28;20044;-81
2021/01/17 05:21:04;;;;;;;31.50;13.37;;;;;;;-3.31;88.45;99034.78;5112834;27;20044;-81
2021/01/17 05:23:34;;;;;;;29.57;12.97;;;;;;;-3.36;88.46;99044.88;5102574;28;20043;-81
2021/01/17 05:26:02;;;;;;;30.37;13.23;;;;;;;-3.33;88.97;99048.19;5115257;27;20164;-81
2021/01/17 05:28:34;;;;;;;26.07;12.47;;;;;;;-3.30;88.50;99040.00;5129022;27;20047;-82
2021/01/17 05:31:00;;;;;;;27.23;12.83;;;;;;;-3.13;88.03;99052.22;5132858;27;20047;-81
2021/01/17 05:33:30;;;;;;;31.77;12.60;;;;;;;-3.32;88.17;99035.75;5126754;27;20482;-81
2021/01/17 05:35:57;;;;;;;34.63;12.88;;;;;;;-3.43;88.66;99031.97;5135467;27;20043;-81
2021/01/17 05:38:24;;;;;;;31.73;12.73;;;;;;;-3.36;88.84;99037.75;5103668;27;20131;-81
2021/01/17 05:40:50;;;;;;;25.57;12.50;;;;;;;-3.35;88.85;99046.59;5133208;27;20059;-81
2021/01/17 05:43:17;;;;;;;31.73;13.67;;;;;;;-3.34;88.60;99048.28;5113127;28;20599;-82
2021/01/17 05:45:44;;;;;;;29.00;12.50;;;;;;;-3.20;88.56;99056.22;5115667;27;20056;-81
2021/01/17 05:48:11;;;;;;;26.93;12.60;;;;;;;-3.32;88.33;99039.25;5101006;27;20064;-81
2021/01/17 05:50:42;;;;;;;27.13;14.13;;;;;;;-3.19;88.17;99057.94;5126252;27;20096;-81
2021/01/17 05:53:09;;;;;;;26.27;12.90;;;;;;;-3.07;87.94;99066.88;5131684;27;20511;-81
2021/01/17 05:55:37;;;;;;;26.03;12.33;;;;;;;-3.26;87.82;99040.66;5119628;27;20403;-81
2021/01/17 05:58:25;;;;;;;27.57;12.93;;;;;;;-3.20;87.86;99053.56;5126188;27;20043;-82
2021/01/17 06:00:53;;;;;;;32.10;13.70;;;;;;;-3.01;87.44;99074.50;5133070;27;20122;-81
2021/01/17 06:03:31;;;;;;;27.50;13.03;;;;;;;-3.14;87.90;99069.09;5116666;27;20051;-81
2021/01/17 06:05:59;;;;;;;30.33;14.40;;;;;;;-3.21;87.14;99044.75;5117550;27;20089;-81
2021/01/17 06:08:26;;;;;;;25.67;12.87;;;;;;;-3.10;87.35;99067.97;5121027;27;20465;-82
2021/01/17 06:10:55;;;;;;;36.90;14.70;;;;;;;-3.09;87.52;99066.16;5135015;27;20046;-81
2021/01/17 06:13:23;;;;;;;29.13;13.20;;;;;;;-3.20;87.98;99059.72;5121376;27;20420;-81
2021/01/17 06:15:50;;;;;;;33.97;14.77;;;;;;;-3.05;87.70;99067.66;5114978;27;20487;-81
2021/01/17 06:18:22;;;;;;;27.03;12.60;;;;;;;-3.03;87.65;99066.59;5114365;28;20043;-81
2021/01/17 06:20:58;;;;;;;34.87;14.10;;;;;;;-3.09;87.38;99060.81;5115175;28;20527;-82
2021/01/17 06:23:25;;;;;;;28.33;14.03;;;;;;;-3.13;87.41;99043.34;5097282;27;20431;-81
2021/01/17 06:26:02;;;;;;;28.33;12.83;;;;;;;-3.03;87.68;99061.28;5123345;27;20468;-81
2021/01/17 06:28:39;;;;;;;32.60;13.60;;;;;;;-3.22;87.47;99026.22;5113636;28;20043;-81
2021/01/17 06:31:06;;;;;;;34.20;13.93;;;;;;;-3.09;87.40;99050.19;5131262;27;20491;-81
2021/01/17 06:33:34;;;;;;;27.60;12.30;;;;;;;-3.24;88.11;99044.94;5127794;27;20108;-81
2021/01/17 06:36:11;;;;;;;33.60;13.23;;;;;;;-3.22;88.58;99052.81;5121463;27;20443;-82
2021/01/17 06:38:37;;;;;;;27.23;13.47;;;;;;;-3.35;88.95;99043.94;5094151;28;20083;-81
2021/01/17 06:41:03;;;;;;;27.20;13.20;;;;;;;-3.27;88.71;99052.25;5105108;27;20047;-81
2021/01/17 06:43:31;;;;;;;31.50;13.73;;;;;;;-3.24;89.01;99060.03;5101917;27;20044;-81
2021/01/17 06:45:58;;;;;;;29.80;13.07;;;;;;;-3.28;88.98;99069.13;5103529;27;20043;-81
2021/01/17 06:48:26;;;;;;;30.23;12.50;;;;;;;-3.22;89.01;99066.94;5114547;27;20555;-81
2021/01/17 06:50:54;;;;;;;25.87;12.13;;;;;;;-3.22;88.86;99080.25;5097292;27;20055;-81
2021/01/17 06:53:23;;;;;;;29.70;13.90;;;;;;;-3.31;89.15;99061.38;5126076;27;20036;-82
2021/01/17 06:55:49;;;;;;;28.73;12.57;;;;;;;-3.27;89.32;99063.72;5114138;28;20570;-82
2021/01/17 06:58:18;;;;;;;28.03;12.27;;;;;;;-3.46;89.52;99044.59;5100436;27;20054;-81
2021/01/17 07:00:46;;;;;;;29.10;14.63;;;;;;;-3.36;89.73;99053.69;5128944;27;20047;-82
2021/01/17 07:03:16;;;;;;;31.30;14.63;;;;;;;-3.32;89.52;99052.53;5122692;27;20047;-81
2021/01/17 07:06:10;;;;;;;25.90;13.25;;;;;;;-3.08;88.72;99046.59;5114453;28;20056;-81
2021/01/17 07:08:50;;;;;;;27.40;13.30;;;;;;;-3.23;89.77;99059.06;5122695;27;20531;-81
2021/01/17 07:11:33;;;;;;;32.22;13.43;;;;;;;-2.97;88.88;99070.66;5133417;27;20049;-82
2021/01/17 07:14:05;;;;;;;28.03;11.37;;;;;;;-3.26;89.34;99056.63;5115791;27;20109;-81
2021/01/17 07:16:32;;;;;;;28.17;12.03;;;;;;;-3.17;89.91;99079.09;5113409;27;20047;-81
2021/01/17 07:19:05;;;;;;;29.17;13.60;;;;;;;-3.17;89.94;99085.25;5128243;27;20047;-81
2021/01/17 07:21:42;;;;;;;24.97;13.13;;;;;;;-3.04;90.05;99077.31;5113815;27;20051;-81
2021/01/17 07:24:10;;;;;;;29.50;12.93;;;;;;;-3.10;89.26;99056.44;5122760;27;20104;-82
2021/01/17 07:26:48;;;;;;;31.90;13.93;;;;;;;-3.05;88.49;99065.84;5111658;27;20097;-82
2021/01/17 07:29:17;;;;;;;31.27;14.70;;;;;;;-2.82;88.24;99089.22;5117599;27;20043;-81
2021/01/17 07:31:46;;;;;;;30.98;14.70;;;;;;;-2.79;87.76;99081.88;5129628;27;20504;-81
2021/01/17 07:34:14;;;;;;;28.73;13.55;;;;;;;-2.88;88.05;99078.00;5113613;27;20130;-81
2021/01/17 07:36:49;;;;;;;31.93;13.47;;;;;;;-2.80;88.40;99085.50;5106952;27;20058;-81
2021/01/17 07:39:20;;;;;;;32.43;13.17;;;;;;;-3.06;88.69;99064.13;5132286;27;20051;-81
2021/01/17 07:41:49;;;;;;;28.80;13.27;;;;;;;-2.97;88.71;99097.25;5116600;27;20442;-81
2021/01/17 07:44:19;;;;;;;29.00;13.25;;;;;;;-2.99;89.21;99090.34;5114512;27;20044;-81
2021/01/17 07:46:46;;;;;;;36.03;16.05;;;;;;;-2.99;88.93;99091.19;5116105;27;20043;-81
2021/01/17 07:49:13;;;;;;;36.67;16.93;;;;;;;-3.01;88.68;99077.16;5112594;27;20506;-81
2021/01/17 07:51:40;;;;;;;34.03;14.80;;;;;;;-2.87;88.14;99076.22;5114877;27;20062;-81
2021/01/17 07:54:19;;;;;;;48.73;21.03;;;;;;;-2.81;87.95;99082.97;5113226;27;20070;-81
2021/01/17 07:56:47;;;;;;;56.17;26.00;;;;;;;-2.60;87.58;99117.94;5112832;28;20083;-81
2021/01/17 07:59:13;;;;;;;62.50;27.73;;;;;;;-2.69;87.73;99112.25;5120551;27;20039;-82
2021/01/17 08:01:48;;;;;;;43.00;20.40;;;;;;;-2.63;87.90;99118.13;5120009;27;20047;-81
2021/01/17 08:04:30;;;;;;;32.50;14.40;;;;;;;-2.61;87.97;99122.38;5112538;27;20459;-79
2021/01/17 08:07:01;;;;;;;30.00;14.87;;;;;;;-2.60;88.25;99121.44;5116395;27;20046;-80
2021/01/17 08:09:49;;;;;;;31.60;12.73;;;;;;;-2.56;87.85;99114.09;5121956;27;20087;-83
2021/01/17 08:12:36;;;;;;;32.43;14.33;;;;;;;-2.39;87.69;99137.78;5100413;27;20096;-81
2021/01/17 08:15:23;;;;;;;26.63;14.23;;;;;;;-2.43;86.76;99127.44;5096961;27;20519;-82
2021/01/17 08:17:51;;;;;;;28.83;13.43;;;;;;;-2.43;87.44;99130.09;5114650;27;20043;-82
2021/01/17 08:20:29;;;;;;;28.33;14.30;;;;;;;-2.22;86.93;99138.44;5112226;28;20063;-81
2021/01/17 08:23:11;;;;;;;27.67;12.77;;;;;;;-2.27;87.14;99127.22;5103739;28;20066;-81
2021/01/17 08:25:58;;;;;;;30.97;13.67;;;;;;;-2.18;87.14;99139.94;5110310;27;20059;-81
2021/01/17 08:28:38;;;;;;;26.40;13.60;;;;;;;-2.30;86.62;99120.31;5092537;28;20062;-81
2021/01/17 08:31:35;;;;;;;34.60;14.07;;;;;;;-2.08;85.75;99111.69;5106387;28;20079;-82
2021/01/17 08:34:23;;;;;;;33.03;14.80;;;;;;;-1.79;85.15;99127.50;5109849;28;20044;-82
2021/01/17 08:36:50;;;;;;;32.27;13.37;;;;;;;-1.85;85.08;99099.47;5114796;27;20043;-81
2021/01/17 08:39:43;;;;;;;25.63;12.47;;;;;;;-1.64;85.37;99145.06;5110983;27;20055;-82
2021/01/17 08:42:30;;;;;;;26.20;12.63;;;;;;;-1.77;84.69;99116.72;5112471;28;20051;-82
2021/01/17 08:44:58;;;;;;;28.53;12.63;;;;;;;-1.62;85.25;99137.81;5106479;28;20044;-81
2021/01/17 08:47:25;;;;;;;22.90;11.53;;;;;;;-1.66;85.38;99144.31;5123865;27;20044;-82
2021/01/17 08:49:53;;;;;;;28.23;13.47;;;;;;;-1.63;85.48;99145.91;5107388;28;20270;-82
2021/01/17 08:52:25;;;;;;;25.30;12.40;;;;;;;-1.80;84.99;99112.44;5127945;27;20055;-81
2021/01/17 08:54:51;;;;;;;27.47;12.37;;;;;;;-1.59;85.42;99135.91;5124155;27;20055;-82
2021/01/17 08:57:38;;;;;;;30.57;13.00;;;;;;;-1.58;84.97;99132.25;5119374;27;20115;-81
2021/01/17 09:00:09;;;;;;;25.57;12.13;;;;;;;-1.28;84.27;99140.75;5112706;28;20075;-81
2021/01/17 09:02:45;;;;;;;27.40;13.07;;;;;;;-1.05;83.53;99161.38;5121359;28;20047;-82
2021/01/17 09:05:19;;;;;;;24.97;12.43;;;;;;;-1.13;82.71;99124.59;5131544;28;20142;-82
2021/01/17 09:07:47;;;;;;;29.20;12.67;;;;;;;-1.01;82.78;99158.41;5131866;28;20050;-82
2021/01/17 09:10:17;;;;;;;25.57;12.83;;;;;;;-0.86;82.09;99167.06;5132620;28;20047;-82
2021/01/17 09:12:45;;;;;;;23.93;12.10;;;;;;;-0.78;82.21;99171.88;5112573;28;20091;-82
2021/01/17 09:15:17;;;;;;;29.23;12.07;;;;;;;-1.03;82.17;99143.47;5123383;28;20039;-82
2021/01/17 09:17:56;;;;;;;27.63;12.93;;;;;;;-0.66;81.55;99173.66;5110054;28;20039;-82
2021/01/17 09:20:23;;;;;;;30.87;12.80;;;;;;;-0.90;82.13;99153.13;5127262;28;20043;-82
2021/01/17 09:22:50;;;;;;;26.33;11.87;;;;;;;-0.77;81.70;99160.22;5123198;28;20388;-82
2021/01/17 09:25:17;;;;;;;26.80;12.13;;;;;;;-0.76;81.32;99177.94;5113821;28;20079;-82
2021/01/17 09:27:45;;;;;;;32.33;13.33;;;;;;;-0.70;81.55;99177.50;5125479;28;20047;-81
2021/01/17 09:30:12;;;;;;;32.30;15.07;;;;;;;-0.60;81.72;99183.03;5116027;28;20058;-82
2021/01/17 09:32:41;;;;;;;28.53;13.83;;;;;;;-0.47;80.95;99197.16;5112496;28;20051;-82
2021/01/17 09:35:08;;;;;;;30.80;13.23;;;;;;;-0.44;80.82;99196.06;5119969;28;20040;-82
2021/01/17 09:37:34;;;;;;;28.00;12.97;;;;;;;-0.62;81.32;99190.28;5125515;28;20515;-82
2021/01/17 09:40:02;;;;;;;27.87;12.70;;;;;;;-0.54;81.22;99185.25;5123459;28;20042;-81
2021/01/17 09:42:28;;;;;;;24.97;11.53;;;;;;;-0.42;80.79;99208.34;5115235;28;20048;-82
2021/01/17 09:44:58;;;;;;;29.67;12.40;;;;;;;-0.60;81.46;99175.84;5107343;28;20426;-82
2021/01/17 09:47:27;;;;;;;27.15;12.88;;;;;;;-0.64;81.29;99178.88;5111616;28;20543;-82
2021/01/17 09:50:05;;;;;;;27.30;13.07;;;;;;;-0.61;81.62;99200.00;5115234;28;20054;-82
2021/01/17 09:52:38;;;;;;;26.10;12.50;;;;;;;-0.56;81.41;99195.16;5101875;28;20514;-82
2021/01/17 09:55:07;;;;;;;26.60;12.90;;;;;;;-0.38;80.79;99192.94;5115286;28;20046;-82
2021/01/17 09:57:37;;;;;;;31.52;13.45;;;;;;;-0.12;79.83;99198.16;5107937;28;20047;-82
2021/01/17 10:00:08;;;;;;;30.00;13.50;;;;;;;-0.05;80.75;99218.94;5114736;28;20047;-82
2021/01/17 10:02:37;;;;;;;34.07;13.80;;;;;;;0.05;79.14;99204.91;5091668;28;20596;-83
2021/01/17 10:05:04;;;;;;;28.80;14.73;;;;;;;0.18;79.26;99211.00;5111379;28;20478;-83
2021/01/17 10:07:31;;;;;;;35.17;15.10;;;;;;;0.21;79.04;99202.75;5117675;27;20404;-83
2021/01/17 10:09:57;;;;;;;25.80;13.17;;;;;;;0.28;78.76;99206.66;5112974;27;20461;-83
2021/01/17 10:12:24;;;;;;;30.20;13.70;;;;;;;0.25;78.39;99190.84;5104833;27;20043;-83
2021/01/17 10:14:51;;;;;;;33.63;15.33;;;;;;;0.26;79.17;99221.13;5116538;27;20057;-84
2021/01/17 10:17:19;;;;;;;25.47;13.60;;;;;;;-0.12;79.15;99191.00;5121507;27;20066;-83
2021/01/17 10:19:48;;;;;;;29.50;13.53;;;;;;;-0.07;80.00;99214.69;5127304;27;20051;-83
2021/01/17 10:22:16;;;;;;;31.65;15.07;;;;;;;-0.06;79.47;99203.03;5124326;27;20126;-83
2021/01/17 10:24:43;;;;;;;28.77;13.87;;;;;;;-0.02;80.12;99186.63;5131538;27;20051;-84
2021/01/17 10:27:11;;;;;;;29.85;14.23;;;;;;;0.16;80.28;99220.97;5124246;27;20047;-84
2021/01/17 10:29:39;;;;;;;26.98;12.77;;;;;;;0.10;79.57;99210.75;5110190;28;20055;-83
2021/01/17 10:32:09;;;;;;;29.67;14.13;;;;;;;0.25;79.79;99219.41;5127270;27;20499;-84
2021/01/17 10:34:41;;;;;;;28.27;14.00;;;;;;;0.52;78.78;99216.41;5117008;27;20153;-84
2021/01/17 10:37:12;;;;;;;28.85;13.52;;;;;;;0.48;78.95;99215.81;5110287;27;20511;-85
2021/01/17 10:39:43;;;;;;;30.25;13.23;;;;;;;0.41;78.65;99197.69;5118872;27;20099;-86
2021/01/17 10:42:14;;;;;;;29.60;14.43;;;;;;;0.25;79.44;99193.50;5127163;27;20059;-84
2021/01/17 10:44:57;;;;;;;28.92;13.60;;;;;;;0.39;79.79;99237.91;5115973;28;20185;-85
2021/01/17 10:47:34;;;;;;;33.03;15.13;;;;;;;0.31;80.07;99222.44;5101256;28;20044;-82
2021/01/17 10:50:07;;;;;;;25.75;13.63;;;;;;;0.12;80.57;99201.66;5110941;27;20063;-81
2021/01/17 10:52:38;;;;;;;29.97;14.20;;;;;;;0.01;80.88;99201.59;5100066;28;20051;-81
2021/01/17 10:55:06;;;;;;;30.92;14.90;;;;;;;-0.09;80.77;99185.41;5123330;27;20575;-81
2021/01/17 10:57:36;;;;;;;27.48;12.93;;;;;;;-0.05;80.72;99194.03;5119394;27;20531;-82
2021/01/17 11:00:05;;;;;;;28.55;14.82;;;;;;;-0.09;80.75;99190.75;5112443;27;20194;-82
2021/01/17 11:02:32;;;;;;;32.65;14.63;;;;;;;-0.06;80.98;99206.56;5098550;27;20066;-81
2021/01/17 11:04:58;;;;;;;28.77;15.35;;;;;;;-0.05;81.15;99218.09;5127735;27;20138;-82
2021/01/17 11:07:28;;;;;;;30.25;14.10;;;;;;;-0.12;81.74;99193.69;5113085;28;20047;-82
2021/01/17 11:09:55;;;;;;;27.70;14.63;;;;;;;0.08;81.54;99218.88;5132506;27;20126;-82
2021/01/17 11:12:38;;;;;;;38.00;15.98;;;;;;;-0.10;80.22;99183.72;5119502;27;20127;-81
2021/01/17 11:15:12;;;;;;;31.70;15.40;;;;;;;0.09;81.08;99227.75;5116706;27;20048;-83
2021/01/17 11:17:39;;;;;;;33.43;16.30;;;;;;;-0.11;81.46;99197.19;5107881;27;20564;-82
2021/01/17 11:20:08;;;;;;;32.87;15.70;;;;;;;-0.16;81.29;99207.38;5118295;27;20130;-83
2021/01/17 11:22:36;;;;;;;31.57;14.97;;;;;;;-0.14;81.58;99210.78;5127319;27;20134;-83
2021/01/17 11:25:04;;;;;;;35.27;15.40;;;;;;;-0.20;82.04;99209.41;5118605;27;20464;-83
2021/01/17 11:27:37;;;;;;;31.98;16.05;;;;;;;-0.03;81.54;99230.38;5110927;28;20055;-83
2021/01/17 11:30:05;;;;;;;33.27;15.67;;;;;;;-0.16;82.71;99207.38;5131690;27;20153;-83